sensor_id;sensor_type;location;lat;lon;timestamp;P1;durP1;ratioP1;P2;durP2;ratioP2
59302;SDS011;45074;52.764;6.896;2023-03-01T00:02:05;26.55;;;16.92;;
59302;SDS011;45074;52.764;6.896;2023-03-01T00:04:31;24.13;;;17.00;;
59302;SDS011;45074;52.764;6.896;2023-03-01T00:06:57;24.73;;;16.33;;
59302;SDS011;45074;52.764;6.896;2023-03-01T00:09:23;26.60;;;17.63;;
59302;SDS011;45074;52.764;6.896;2023-03-01T00:11:49;27.33;;;18.00;;
59302;SDS011;45074;52.764;6.896;2023-03-01T00:14:15;28.75;;;17.48;;
59302;SDS011;45074;52.764;6.896;2023-03-01T00:16:42;26.05;;;17.38;;
59302;SDS011;45074;52.764;6.896;2023-03-01T00:19:11;24.45;;;17.45;;
59302;SDS011;45074;52.764;6.896;2023-03-01T00:21:41;24.38;;;16.65;;
59302;SDS011;45074;52.764;6.896;2023-03-01T00:24:07;24.88;;;16.55;;
59302;SDS011;45074;52.764;6.896;2023-03-01T00:26:33;23.52;;;15.88;;
59302;SDS011;45074;52.764;6.896;2023-03-01T00:29:00;22.95;;;16.02;;
59302;SDS011;45074;52.764;6.896;2023-03-01T00:31:26;22.02;;;15.93;;
59302;SDS011;45074;52.764;6.896;2023-03-01T00:33:58;25.42;;;16.35;;
59302;SDS011;45074;52.764;6.896;2023-03-01T00:38:51;24.92;;;15.90;;
59302;SDS011;45074;52.764;6.896;2023-03-01T00:41:18;23.45;;;14.88;;
59302;SDS011;45074;52.764;6.896;2023-03-01T00:43:45;23.95;;;15.98;;
59302;SDS011;45074;52.764;6.896;2023-03-01T00:46:12;24.65;;;15.90;;
59302;SDS011;45074;52.764;6.896;2023-03-01T00:48:39;25.33;;;16.25;;
59302;SDS011;45074;52.764;6.896;2023-03-01T00:53:32;24.83;;;15.65;;
59302;SDS011;45074;52.764;6.896;2023-03-01T00:55:58;24.10;;;16.02;;
59302;SDS011;45074;52.764;6.896;2023-03-01T00:58:24;24.33;;;15.68;;
59302;SDS011;45074;52.764;6.896;2023-03-01T01:00:50;22.67;;;15.40;;
59302;SDS011;45074;52.764;6.896;2023-03-01T01:03:17;25.23;;;15.63;;
59302;SDS011;45074;52.764;6.896;2023-03-01T01:05:43;25.30;;;15.75;;
59302;SDS011;45074;52.764;6.896;2023-03-01T01:08:09;22.40;;;14.75;;
59302;SDS011;45074;52.764;6.896;2023-03-01T01:10:35;23.73;;;15.80;;
59302;SDS011;45074;52.764;6.896;2023-03-01T01:13:01;22.83;;;14.52;;
59302;SDS011;45074;52.764;6.896;2023-03-01T01:15:27;23.23;;;14.82;;
59302;SDS011;45074;52.764;6.896;2023-03-01T01:17:53;23.58;;;15.20;;
59302;SDS011;45074;52.764;6.896;2023-03-01T01:20:19;24.20;;;14.93;;
59302;SDS011;45074;52.764;6.896;2023-03-01T01:22:45;22.83;;;15.25;;
59302;SDS011;45074;52.764;6.896;2023-03-01T01:25:11;21.42;;;14.57;;
59302;SDS011;45074;52.764;6.896;2023-03-01T01:27:37;25.40;;;15.85;;
59302;SDS011;45074;52.764;6.896;2023-03-01T01:30:03;21.58;;;14.73;;
59302;SDS011;45074;52.764;6.896;2023-03-01T01:32:29;22.50;;;15.02;;
59302;SDS011;45074;52.764;6.896;2023-03-01T01:34:55;23.50;;;14.95;;
59302;SDS011;45074;52.764;6.896;2023-03-01T01:37:21;22.65;;;14.98;;
59302;SDS011;45074;52.764;6.896;2023-03-01T01:39:50;22.85;;;14.35;;
59302;SDS011;45074;52.764;6.896;2023-03-01T01:42:17;21.10;;;14.27;;
59302;SDS011;45074;52.764;6.896;2023-03-01T01:44:47;21.42;;;14.65;;
59302;SDS011;45074;52.764;6.896;2023-03-01T01:47:14;25.42;;;15.90;;
59302;SDS011;45074;52.764;6.896;2023-03-01T01:49:51;24.10;;;15.60;;
59302;SDS011;45074;52.764;6.896;2023-03-01T01:52:20;26.02;;;16.17;;
59302;SDS011;45074;52.764;6.896;2023-03-01T01:57:46;26.40;;;15.60;;
59302;SDS011;45074;52.764;6.896;2023-03-01T02:00:16;23.77;;;15.65;;
59302;SDS011;45074;52.764;6.896;2023-03-01T02:02:45;30.42;;;16.33;;
59302;SDS011;45074;52.764;6.896;2023-03-01T02:05:25;26.80;;;16.77;;
59302;SDS011;45074;52.764;6.896;2023-03-01T02:07:54;26.17;;;16.42;;
59302;SDS011;45074;52.764;6.896;2023-03-01T02:10:23;29.27;;;17.83;;
59302;SDS011;45074;52.764;6.896;2023-03-01T02:12:49;27.65;;;16.42;;
59302;SDS011;45074;52.764;6.896;2023-03-01T02:15:16;27.63;;;16.52;;
59302;SDS011;45074;52.764;6.896;2023-03-01T02:17:41;26.42;;;16.60;;
59302;SDS011;45074;52.764;6.896;2023-03-01T02:20:12;27.38;;;17.13;;
59302;SDS011;45074;52.764;6.896;2023-03-01T02:22:40;26.13;;;16.52;;
59302;SDS011;45074;52.764;6.896;2023-03-01T02:27:57;23.52;;;15.20;;
59302;SDS011;45074;52.764;6.896;2023-03-01T02:30:31;27.55;;;16.45;;
59302;SDS011;45074;52.764;6.896;2023-03-01T02:32:57;26.10;;;16.98;;
59302;SDS011;45074;52.764;6.896;2023-03-01T02:35:33;25.80;;;16.30;;
59302;SDS011;45074;52.764;6.896;2023-03-01T02:38:02;24.17;;;14.90;;
59302;SDS011;45074;52.764;6.896;2023-03-01T02:40:32;26.85;;;16.83;;
59302;SDS011;45074;52.764;6.896;2023-03-01T02:42:59;27.27;;;16.17;;
59302;SDS011;45074;52.764;6.896;2023-03-01T02:45:26;26.35;;;16.25;;
59302;SDS011;45074;52.764;6.896;2023-03-01T02:47:55;24.73;;;15.20;;
59302;SDS011;45074;52.764;6.896;2023-03-01T02:50:25;25.25;;;15.85;;
59302;SDS011;45074;52.764;6.896;2023-03-01T02:53:23;24.05;;;15.10;;
59302;SDS011;45074;52.764;6.896;2023-03-01T02:56:11;23.25;;;14.95;;
59302;SDS011;45074;52.764;6.896;2023-03-01T02:58:39;26.02;;;15.93;;
59302;SDS011;45074;52.764;6.896;2023-03-01T03:01:11;26.13;;;15.90;;
59302;SDS011;45074;52.764;6.896;2023-03-01T03:03:40;24.17;;;14.73;;
59302;SDS011;45074;52.764;6.896;2023-03-01T03:06:06;23.10;;;15.02;;
59302;SDS011;45074;52.764;6.896;2023-03-01T03:08:32;25.13;;;16.02;;
59302;SDS011;45074;52.764;6.896;2023-03-01T03:10:58;24.77;;;15.52;;
59302;SDS011;45074;52.764;6.896;2023-03-01T03:13:24;25.90;;;16.45;;
59302;SDS011;45074;52.764;6.896;2023-03-01T03:15:54;24.48;;;15.43;;
59302;SDS011;45074;52.764;6.896;2023-03-01T03:18:20;23.65;;;14.95;;
59302;SDS011;45074;52.764;6.896;2023-03-01T03:20:47;27.35;;;16.33;;
59302;SDS011;45074;52.764;6.896;2023-03-01T03:23:17;25.00;;;16.30;;
59302;SDS011;45074;52.764;6.896;2023-03-01T03:25:44;25.17;;;15.40;;
59302;SDS011;45074;52.764;6.896;2023-03-01T03:28:10;23.95;;;14.98;;
59302;SDS011;45074;52.764;6.896;2023-03-01T03:30:36;24.30;;;15.10;;
59302;SDS011;45074;52.764;6.896;2023-03-01T03:33:04;22.20;;;14.63;;
59302;SDS011;45074;52.764;6.896;2023-03-01T03:35:33;25.20;;;14.75;;
59302;SDS011;45074;52.764;6.896;2023-03-01T03:38:04;27.02;;;16.20;;
59302;SDS011;45074;52.764;6.896;2023-03-01T03:40:38;24.17;;;15.30;;
59302;SDS011;45074;52.764;6.896;2023-03-01T03:45:38;24.40;;;15.10;;
59302;SDS011;45074;52.764;6.896;2023-03-01T03:48:04;25.67;;;16.70;;
59302;SDS011;45074;52.764;6.896;2023-03-01T03:50:32;25.05;;;16.42;;
59302;SDS011;45074;52.764;6.896;2023-03-01T03:53:02;25.85;;;15.82;;
59302;SDS011;45074;52.764;6.896;2023-03-01T03:57:57;25.55;;;15.55;;
59302;SDS011;45074;52.764;6.896;2023-03-01T04:00:26;25.67;;;15.90;;
59302;SDS011;45074;52.764;6.896;2023-03-01T04:02:53;26.23;;;16.58;;
59302;SDS011;45074;52.764;6.896;2023-03-01T04:05:22;24.52;;;15.63;;
59302;SDS011;45074;52.764;6.896;2023-03-01T04:07:48;23.98;;;15.55;;
59302;SDS011;45074;52.764;6.896;2023-03-01T04:10:15;25.15;;;15.65;;
59302;SDS011;45074;52.764;6.896;2023-03-01T04:12:42;27.40;;;16.83;;
59302;SDS011;45074;52.764;6.896;2023-03-01T04:15:08;26.00;;;16.50;;
59302;SDS011;45074;52.764;6.896;2023-03-01T04:17:42;28.75;;;17.65;;
59302;SDS011;45074;52.764;6.896;2023-03-01T04:20:10;29.52;;;17.15;;
59302;SDS011;45074;52.764;6.896;2023-03-01T04:22:38;26.33;;;17.48;;
59302;SDS011;45074;52.764;6.896;2023-03-01T04:25:05;28.52;;;16.75;;
59302;SDS011;45074;52.764;6.896;2023-03-01T04:27:34;27.50;;;16.83;;
59302;SDS011;45074;52.764;6.896;2023-03-01T04:30:01;30.35;;;17.85;;
59302;SDS011;45074;52.764;6.896;2023-03-01T04:32:28;28.13;;;16.85;;
59302;SDS011;45074;52.764;6.896;2023-03-01T04:34:54;27.55;;;17.42;;
59302;SDS011;45074;52.764;6.896;2023-03-01T04:37:20;28.40;;;16.83;;
59302;SDS011;45074;52.764;6.896;2023-03-01T04:39:45;30.45;;;17.75;;
59302;SDS011;45074;52.764;6.896;2023-03-01T04:42:12;27.17;;;17.58;;
59302;SDS011;45074;52.764;6.896;2023-03-01T04:44:39;26.40;;;17.85;;
59302;SDS011;45074;52.764;6.896;2023-03-01T04:47:05;27.30;;;17.25;;
59302;SDS011;45074;52.764;6.896;2023-03-01T04:49:31;27.45;;;17.33;;
59302;SDS011;45074;52.764;6.896;2023-03-01T04:51:57;28.13;;;17.42;;
59302;SDS011;45074;52.764;6.896;2023-03-01T04:54:27;31.25;;;18.40;;
59302;SDS011;45074;52.764;6.896;2023-03-01T04:56:53;29.08;;;17.08;;
59302;SDS011;45074;52.764;6.896;2023-03-01T04:59:20;29.73;;;17.63;;
59302;SDS011;45074;52.764;6.896;2023-03-01T05:01:49;29.42;;;18.52;;
59302;SDS011;45074;52.764;6.896;2023-03-01T05:04:15;29.05;;;17.75;;
59302;SDS011;45074;52.764;6.896;2023-03-01T05:06:41;30.45;;;18.58;;
59302;SDS011;45074;52.764;6.896;2023-03-01T05:09:07;29.55;;;17.73;;
59302;SDS011;45074;52.764;6.896;2023-03-01T05:11:33;29.25;;;18.50;;
59302;SDS011;45074;52.764;6.896;2023-03-01T05:14:04;29.63;;;17.73;;
59302;SDS011;45074;52.764;6.896;2023-03-01T05:16:30;27.88;;;17.88;;
59302;SDS011;45074;52.764;6.896;2023-03-01T05:18:57;28.80;;;17.77;;
59302;SDS011;45074;52.764;6.896;2023-03-01T05:21:23;29.02;;;17.83;;
59302;SDS011;45074;52.764;6.896;2023-03-01T05:23:49;27.02;;;17.40;;
59302;SDS011;45074;52.764;6.896;2023-03-01T05:26:16;28.83;;;16.88;;
59302;SDS011;45074;52.764;6.896;2023-03-01T05:28:43;26.05;;;16.33;;
59302;SDS011;45074;52.764;6.896;2023-03-01T05:31:09;28.08;;;16.85;;
59302;SDS011;45074;52.764;6.896;2023-03-01T05:33:40;26.45;;;16.58;;
59302;SDS011;45074;52.764;6.896;2023-03-01T05:36:09;28.67;;;17.53;;
59302;SDS011;45074;52.764;6.896;2023-03-01T05:38:35;29.33;;;16.88;;
59302;SDS011;45074;52.764;6.896;2023-03-01T05:41:01;28.35;;;16.05;;
59302;SDS011;45074;52.764;6.896;2023-03-01T05:43:29;25.92;;;16.40;;
59302;SDS011;45074;52.764;6.896;2023-03-01T05:45:57;29.80;;;17.05;;
59302;SDS011;45074;52.764;6.896;2023-03-01T05:48:23;27.13;;;17.13;;
59302;SDS011;45074;52.764;6.896;2023-03-01T05:50:49;26.85;;;16.63;;
59302;SDS011;45074;52.764;6.896;2023-03-01T05:53:16;28.27;;;17.27;;
59302;SDS011;45074;52.764;6.896;2023-03-01T05:55:47;28.02;;;17.02;;
59302;SDS011;45074;52.764;6.896;2023-03-01T05:58:16;30.27;;;17.63;;
59302;SDS011;45074;52.764;6.896;2023-03-01T06:00:43;31.60;;;17.48;;
59302;SDS011;45074;52.764;6.896;2023-03-01T06:03:10;27.27;;;17.13;;
59302;SDS011;45074;52.764;6.896;2023-03-01T06:05:37;29.70;;;17.85;;
59302;SDS011;45074;52.764;6.896;2023-03-01T06:08:04;29.58;;;18.23;;
59302;SDS011;45074;52.764;6.896;2023-03-01T06:10:30;28.85;;;17.73;;
59302;SDS011;45074;52.764;6.896;2023-03-01T06:12:56;29.30;;;17.60;;
59302;SDS011;45074;52.764;6.896;2023-03-01T06:15:23;30.05;;;18.48;;
59302;SDS011;45074;52.764;6.896;2023-03-01T06:17:49;29.63;;;17.75;;
59302;SDS011;45074;52.764;6.896;2023-03-01T06:20:17;30.67;;;18.77;;
59302;SDS011;45074;52.764;6.896;2023-03-01T06:22:45;33.50;;;19.77;;
59302;SDS011;45074;52.764;6.896;2023-03-01T06:25:12;32.20;;;20.70;;
59302;SDS011;45074;52.764;6.896;2023-03-01T06:27:40;32.80;;;20.50;;
59302;SDS011;45074;52.764;6.896;2023-03-01T06:30:06;34.03;;;20.85;;
59302;SDS011;45074;52.764;6.896;2023-03-01T06:32:35;33.30;;;20.73;;
59302;SDS011;45074;52.764;6.896;2023-03-01T06:35:02;34.70;;;20.90;;
59302;SDS011;45074;52.764;6.896;2023-03-01T06:37:29;36.90;;;21.70;;
59302;SDS011;45074;52.764;6.896;2023-03-01T06:39:55;35.40;;;22.70;;
59302;SDS011;45074;52.764;6.896;2023-03-01T06:42:21;37.10;;;22.35;;
59302;SDS011;45074;52.764;6.896;2023-03-01T06:44:47;34.47;;;21.85;;
59302;SDS011;45074;52.764;6.896;2023-03-01T06:47:13;35.28;;;21.83;;
59302;SDS011;45074;52.764;6.896;2023-03-01T06:49:39;37.22;;;22.67;;
59302;SDS011;45074;52.764;6.896;2023-03-01T06:52:05;36.28;;;21.77;;
59302;SDS011;45074;52.764;6.896;2023-03-01T06:54:31;36.35;;;21.88;;
59302;SDS011;45074;52.764;6.896;2023-03-01T06:56:57;35.38;;;21.58;;
59302;SDS011;45074;52.764;6.896;2023-03-01T06:59:23;33.88;;;21.48;;
59302;SDS011;45074;52.764;6.896;2023-03-01T07:01:49;32.17;;;21.95;;
59302;SDS011;45074;52.764;6.896;2023-03-01T07:04:15;35.78;;;21.63;;
59302;SDS011;45074;52.764;6.896;2023-03-01T07:06:40;37.05;;;22.40;;
59302;SDS011;45074;52.764;6.896;2023-03-01T07:09:06;35.25;;;22.25;;
59302;SDS011;45074;52.764;6.896;2023-03-01T07:11:32;36.83;;;22.50;;
59302;SDS011;45074;52.764;6.896;2023-03-01T07:13:58;35.60;;;22.77;;
59302;SDS011;45074;52.764;6.896;2023-03-01T07:16:25;36.15;;;22.58;;
59302;SDS011;45074;52.764;6.896;2023-03-01T07:18:50;35.45;;;22.20;;
59302;SDS011;45074;52.764;6.896;2023-03-01T07:21:16;39.10;;;23.95;;
59302;SDS011;45074;52.764;6.896;2023-03-01T07:23:42;36.50;;;22.73;;
59302;SDS011;45074;52.764;6.896;2023-03-01T07:26:08;36.13;;;23.50;;
59302;SDS011;45074;52.764;6.896;2023-03-01T07:28:35;35.50;;;23.05;;
59302;SDS011;45074;52.764;6.896;2023-03-01T07:31:03;36.33;;;22.90;;
59302;SDS011;45074;52.764;6.896;2023-03-01T07:33:29;35.97;;;24.10;;
59302;SDS011;45074;52.764;6.896;2023-03-01T07:35:59;36.65;;;23.77;;
59302;SDS011;45074;52.764;6.896;2023-03-01T07:38:26;35.70;;;23.35;;
59302;SDS011;45074;52.764;6.896;2023-03-01T07:40:52;35.65;;;23.77;;
59302;SDS011;45074;52.764;6.896;2023-03-01T07:43:18;38.53;;;24.15;;
59302;SDS011;45074;52.764;6.896;2023-03-01T07:45:45;37.63;;;24.35;;
59302;SDS011;45074;52.764;6.896;2023-03-01T07:48:11;37.53;;;24.48;;
59302;SDS011;45074;52.764;6.896;2023-03-01T07:50:37;38.25;;;24.75;;
59302;SDS011;45074;52.764;6.896;2023-03-01T07:53:03;39.58;;;25.10;;
59302;SDS011;45074;52.764;6.896;2023-03-01T07:55:29;37.38;;;23.15;;
59302;SDS011;45074;52.764;6.896;2023-03-01T07:57:55;36.85;;;23.70;;
59302;SDS011;45074;52.764;6.896;2023-03-01T08:00:21;37.05;;;23.92;;
59302;SDS011;45074;52.764;6.896;2023-03-01T08:02:47;36.30;;;23.20;;
59302;SDS011;45074;52.764;6.896;2023-03-01T08:05:13;34.42;;;23.60;;
59302;SDS011;45074;52.764;6.896;2023-03-01T08:07:39;36.28;;;22.98;;
59302;SDS011;45074;52.764;6.896;2023-03-01T08:10:05;35.47;;;23.75;;
59302;SDS011;45074;52.764;6.896;2023-03-01T08:12:31;32.47;;;21.05;;
59302;SDS011;45074;52.764;6.896;2023-03-01T08:14:57;34.38;;;21.25;;
59302;SDS011;45074;52.764;6.896;2023-03-01T08:17:23;30.63;;;19.73;;
59302;SDS011;45074;52.764;6.896;2023-03-01T08:19:49;33.15;;;21.08;;
59302;SDS011;45074;52.764;6.896;2023-03-01T08:22:15;32.40;;;20.88;;
59302;SDS011;45074;52.764;6.896;2023-03-01T08:24:41;32.13;;;20.45;;
59302;SDS011;45074;52.764;6.896;2023-03-01T08:27:07;29.75;;;19.27;;
59302;SDS011;45074;52.764;6.896;2023-03-01T08:29:33;28.00;;;17.60;;
59302;SDS011;45074;52.764;6.896;2023-03-01T08:31:59;29.05;;;18.50;;
59302;SDS011;45074;52.764;6.896;2023-03-01T08:34:25;25.77;;;17.48;;
59302;SDS011;45074;52.764;6.896;2023-03-01T08:36:51;27.13;;;16.38;;
59302;SDS011;45074;52.764;6.896;2023-03-01T08:39:18;23.30;;;14.35;;
59302;SDS011;45074;52.764;6.896;2023-03-01T08:41:45;21.92;;;14.70;;
59302;SDS011;45074;52.764;6.896;2023-03-01T08:44:12;19.38;;;13.25;;
59302;SDS011;45074;52.764;6.896;2023-03-01T08:46:41;18.20;;;12.30;;
59302;SDS011;45074;52.764;6.896;2023-03-01T08:49:09;18.42;;;12.85;;
59302;SDS011;45074;52.764;6.896;2023-03-01T08:51:42;21.85;;;13.85;;
59302;SDS011;45074;52.764;6.896;2023-03-01T08:54:11;19.08;;;12.07;;
59302;SDS011;45074;52.764;6.896;2023-03-01T08:56:39;19.35;;;11.80;;
59302;SDS011;45074;52.764;6.896;2023-03-01T08:59:06;16.95;;;11.82;;
59302;SDS011;45074;52.764;6.896;2023-03-01T09:01:32;16.02;;;10.35;;
59302;SDS011;45074;52.764;6.896;2023-03-01T09:03:58;14.30;;;9.80;;
59302;SDS011;45074;52.764;6.896;2023-03-01T09:06:23;14.93;;;9.77;;
59302;SDS011;45074;52.764;6.896;2023-03-01T09:08:50;15.45;;;9.48;;
59302;SDS011;45074;52.764;6.896;2023-03-01T09:11:17;14.88;;;9.80;;
59302;SDS011;45074;52.764;6.896;2023-03-01T09:13:46;16.15;;;9.43;;
59302;SDS011;45074;52.764;6.896;2023-03-01T09:16:13;15.32;;;9.98;;
59302;SDS011;45074;52.764;6.896;2023-03-01T09:18:44;15.55;;;10.57;;
59302;SDS011;45074;52.764;6.896;2023-03-01T09:21:11;16.88;;;10.75;;
59302;SDS011;45074;52.764;6.896;2023-03-01T09:23:42;14.07;;;8.98;;
59302;SDS011;45074;52.764;6.896;2023-03-01T09:26:14;11.90;;;7.38;;
59302;SDS011;45074;52.764;6.896;2023-03-01T09:28:42;11.65;;;7.78;;
59302;SDS011;45074;52.764;6.896;2023-03-01T09:31:09;13.20;;;7.65;;
59302;SDS011;45074;52.764;6.896;2023-03-01T09:33:37;14.45;;;7.95;;
59302;SDS011;45074;52.764;6.896;2023-03-01T09:36:04;11.20;;;7.18;;
59302;SDS011;45074;52.764;6.896;2023-03-01T09:38:32;11.40;;;6.97;;
59302;SDS011;45074;52.764;6.896;2023-03-01T09:40:59;10.57;;;6.97;;
59302;SDS011;45074;52.764;6.896;2023-03-01T09:46:12;8.63;;;5.70;;
59302;SDS011;45074;52.764;6.896;2023-03-01T09:48:44;8.60;;;5.00;;
59302;SDS011;45074;52.764;6.896;2023-03-01T09:51:30;8.38;;;5.03;;
59302;SDS011;45074;52.764;6.896;2023-03-01T09:53:58;9.60;;;5.32;;
59302;SDS011;45074;52.764;6.896;2023-03-01T10:09:29;8.20;;;5.03;;
59302;SDS011;45074;52.764;6.896;2023-03-01T10:11:59;9.25;;;5.50;;
59302;SDS011;45074;52.764;6.896;2023-03-01T10:14:33;8.70;;;5.65;;
59302;SDS011;45074;52.764;6.896;2023-03-01T10:17:36;10.18;;;5.72;;
59302;SDS011;45074;52.764;6.896;2023-03-01T10:22:45;9.15;;;5.07;;
59302;SDS011;45074;52.764;6.896;2023-03-01T10:25:15;8.65;;;5.43;;
59302;SDS011;45074;52.764;6.896;2023-03-01T10:27:50;9.10;;;5.10;;
59302;SDS011;45074;52.764;6.896;2023-03-01T10:32:48;6.50;;;3.50;;
59302;SDS011;45074;52.764;6.896;2023-03-01T10:35:17;7.40;;;3.85;;
59302;SDS011;45074;52.764;6.896;2023-03-01T10:38:08;8.20;;;4.13;;
59302;SDS011;45074;52.764;6.896;2023-03-01T10:40:46;9.52;;;4.10;;
59302;SDS011;45074;52.764;6.896;2023-03-01T10:43:16;7.83;;;4.33;;
59302;SDS011;45074;52.764;6.896;2023-03-01T10:45:42;7.13;;;4.20;;
59302;SDS011;45074;52.764;6.896;2023-03-01T10:48:13;9.35;;;4.75;;
59302;SDS011;45074;52.764;6.896;2023-03-01T10:50:39;8.88;;;4.65;;
59302;SDS011;45074;52.764;6.896;2023-03-01T10:53:26;8.02;;;4.90;;
59302;SDS011;45074;52.764;6.896;2023-03-01T10:55:59;9.77;;;5.10;;
59302;SDS011;45074;52.764;6.896;2023-03-01T10:59:04;8.73;;;5.32;;
59302;SDS011;45074;52.764;6.896;2023-03-01T11:01:42;9.27;;;5.28;;
59302;SDS011;45074;52.764;6.896;2023-03-01T11:06:34;9.93;;;5.20;;
59302;SDS011;45074;52.764;6.896;2023-03-01T11:09:14;10.77;;;5.15;;
59302;SDS011;45074;52.764;6.896;2023-03-01T11:11:45;9.90;;;5.45;;
59302;SDS011;45074;52.764;6.896;2023-03-01T11:16:47;8.98;;;5.60;;
59302;SDS011;45074;52.764;6.896;2023-03-01T11:19:22;9.32;;;5.90;;
59302;SDS011;45074;52.764;6.896;2023-03-01T11:24:22;9.48;;;5.88;;
59302;SDS011;45074;52.764;6.896;2023-03-01T11:27:15;9.82;;;5.90;;
59302;SDS011;45074;52.764;6.896;2023-03-01T11:29:57;9.65;;;5.53;;
59302;SDS011;45074;52.764;6.896;2023-03-01T11:32:33;9.50;;;5.40;;
59302;SDS011;45074;52.764;6.896;2023-03-01T11:35:11;11.90;;;6.13;;
59302;SDS011;45074;52.764;6.896;2023-03-01T11:40:31;10.45;;;6.10;;
59302;SDS011;45074;52.764;6.896;2023-03-01T11:51:18;11.85;;;6.32;;
59302;SDS011;45074;52.764;6.896;2023-03-01T11:53:54;9.95;;;6.00;;
59302;SDS011;45074;52.764;6.896;2023-03-01T11:56:34;10.57;;;6.15;;
59302;SDS011;45074;52.764;6.896;2023-03-01T11:59:28;11.40;;;6.57;;
59302;SDS011;45074;52.764;6.896;2023-03-01T12:05:14;11.90;;;6.97;;
59302;SDS011;45074;52.764;6.896;2023-03-01T12:19:20;10.93;;;6.57;;
59302;SDS011;45074;52.764;6.896;2023-03-01T12:21:55;10.25;;;6.80;;
59302;SDS011;45074;52.764;6.896;2023-03-01T12:33:08;10.75;;;6.45;;
59302;SDS011;45074;52.764;6.896;2023-03-01T12:38:49;10.77;;;6.70;;
59302;SDS011;45074;52.764;6.896;2023-03-01T12:49:51;11.65;;;7.30;;
59302;SDS011;45074;52.764;6.896;2023-03-01T12:55:03;11.48;;;7.45;;
59302;SDS011;45074;52.764;6.896;2023-03-01T12:57:46;11.43;;;7.32;;
59302;SDS011;45074;52.764;6.896;2023-03-01T13:00:31;11.77;;;7.72;;
59302;SDS011;45074;52.764;6.896;2023-03-01T13:05:55;11.15;;;7.32;;
59302;SDS011;45074;52.764;6.896;2023-03-01T13:08:27;10.30;;;7.18;;
59302;SDS011;45074;52.764;6.896;2023-03-01T13:11:05;10.57;;;7.28;;
59302;SDS011;45074;52.764;6.896;2023-03-01T13:13:32;11.45;;;7.47;;
59302;SDS011;45074;52.764;6.896;2023-03-01T13:16:11;12.48;;;7.50;;
59302;SDS011;45074;52.764;6.896;2023-03-01T13:19:14;9.70;;;7.25;;
59302;SDS011;45074;52.764;6.896;2023-03-01T13:21:48;11.65;;;7.53;;
59302;SDS011;45074;52.764;6.896;2023-03-01T13:34:50;12.27;;;8.63;;
59302;SDS011;45074;52.764;6.896;2023-03-01T13:37:22;11.02;;;7.80;;
59302;SDS011;45074;52.764;6.896;2023-03-01T13:39:51;11.32;;;7.80;;
59302;SDS011;45074;52.764;6.896;2023-03-01T13:42:34;11.50;;;8.20;;
59302;SDS011;45074;52.764;6.896;2023-03-01T13:45:12;11.57;;;8.38;;
59302;SDS011;45074;52.764;6.896;2023-03-01T13:47:46;12.82;;;8.68;;
59302;SDS011;45074;52.764;6.896;2023-03-01T13:50:19;11.18;;;9.02;;
59302;SDS011;45074;52.764;6.896;2023-03-01T13:58:00;12.10;;;8.88;;
59302;SDS011;45074;52.764;6.896;2023-03-01T14:03:15;12.98;;;9.57;;
59302;SDS011;45074;52.764;6.896;2023-03-01T14:06:02;12.23;;;9.27;;
59302;SDS011;45074;52.764;6.896;2023-03-01T14:08:34;11.20;;;8.23;;
59302;SDS011;45074;52.764;6.896;2023-03-01T14:21:36;11.90;;;9.00;;
59302;SDS011;45074;52.764;6.896;2023-03-01T14:24:02;12.50;;;9.57;;
59302;SDS011;45074;52.764;6.896;2023-03-01T14:26:28;12.02;;;9.35;;
59302;SDS011;45074;52.764;6.896;2023-03-01T14:28:57;12.95;;;9.77;;
59302;SDS011;45074;52.764;6.896;2023-03-01T14:32:01;13.43;;;9.95;;
59302;SDS011;45074;52.764;6.896;2023-03-01T14:34:22;13.38;;;9.98;;
59302;SDS011;45074;52.764;6.896;2023-03-01T14:36:49;12.60;;;10.20;;
59302;SDS011;45074;52.764;6.896;2023-03-01T14:39:22;12.90;;;9.95;;
59302;SDS011;45074;52.764;6.896;2023-03-01T14:41:51;12.68;;;9.93;;
59302;SDS011;45074;52.764;6.896;2023-03-01T14:44:21;11.68;;;9.48;;
59302;SDS011;45074;52.764;6.896;2023-03-01T14:46:51;13.40;;;10.00;;
59302;SDS011;45074;52.764;6.896;2023-03-01T14:49:31;13.30;;;10.15;;
59302;SDS011;45074;52.764;6.896;2023-03-01T14:52:02;13.40;;;9.85;;
59302;SDS011;45074;52.764;6.896;2023-03-01T14:54:43;12.77;;;9.57;;
59302;SDS011;45074;52.764;6.896;2023-03-01T14:57:16;12.48;;;10.00;;
59302;SDS011;45074;52.764;6.896;2023-03-01T14:59:47;12.93;;;10.02;;
59302;SDS011;45074;52.764;6.896;2023-03-01T15:02:17;14.70;;;10.07;;
59302;SDS011;45074;52.764;6.896;2023-03-01T15:04:45;12.23;;;9.13;;
59302;SDS011;45074;52.764;6.896;2023-03-01T15:07:13;12.68;;;9.82;;
59302;SDS011;45074;52.764;6.896;2023-03-01T15:09:40;12.90;;;9.68;;
59302;SDS011;45074;52.764;6.896;2023-03-01T15:15:30;13.60;;;9.05;;
59302;SDS011;45074;52.764;6.896;2023-03-01T15:17:58;13.57;;;9.00;;
59302;SDS011;45074;52.764;6.896;2023-03-01T15:20:26;12.45;;;9.13;;
59302;SDS011;45074;52.764;6.896;2023-03-01T15:22:55;11.70;;;8.87;;
59302;SDS011;45074;52.764;6.896;2023-03-01T15:25:23;12.80;;;8.75;;
59302;SDS011;45074;52.764;6.896;2023-03-01T15:27:51;10.95;;;8.40;;
59302;SDS011;45074;52.764;6.896;2023-03-01T15:30:20;12.75;;;8.60;;
59302;SDS011;45074;52.764;6.896;2023-03-01T15:35:50;11.50;;;9.40;;
59302;SDS011;45074;52.764;6.896;2023-03-01T15:38:24;12.18;;;9.07;;
59302;SDS011;45074;52.764;6.896;2023-03-01T15:40:53;10.90;;;8.77;;
59302;SDS011;45074;52.764;6.896;2023-03-01T15:46:15;10.80;;;9.00;;
59302;SDS011;45074;52.764;6.896;2023-03-01T15:48:49;11.57;;;9.30;;
59302;SDS011;45074;52.764;6.896;2023-03-01T15:51:17;11.10;;;8.88;;
59302;SDS011;45074;52.764;6.896;2023-03-01T15:53:53;12.65;;;9.25;;
59302;SDS011;45074;52.764;6.896;2023-03-01T15:56:19;10.82;;;9.00;;
59302;SDS011;45074;52.764;6.896;2023-03-01T15:58:45;13.75;;;9.95;;
59302;SDS011;45074;52.764;6.896;2023-03-01T16:01:12;11.73;;;9.60;;
59302;SDS011;45074;52.764;6.896;2023-03-01T16:03:39;12.23;;;9.25;;
59302;SDS011;45074;52.764;6.896;2023-03-01T16:06:05;12.13;;;9.48;;
59302;SDS011;45074;52.764;6.896;2023-03-01T16:08:32;12.48;;;9.95;;
59302;SDS011;45074;52.764;6.896;2023-03-01T16:10:58;14.57;;;10.43;;
59302;SDS011;45074;52.764;6.896;2023-03-01T16:13:24;12.25;;;9.48;;
59302;SDS011;45074;52.764;6.896;2023-03-01T16:15:50;12.98;;;9.10;;
59302;SDS011;45074;52.764;6.896;2023-03-01T16:18:16;11.40;;;8.93;;
59302;SDS011;45074;52.764;6.896;2023-03-01T16:20:42;11.63;;;8.93;;
59302;SDS011;45074;52.764;6.896;2023-03-01T16:23:09;12.00;;;8.93;;
59302;SDS011;45074;52.764;6.896;2023-03-01T16:25:36;11.30;;;8.80;;
59302;SDS011;45074;52.764;6.896;2023-03-01T16:28:02;12.70;;;9.20;;
59302;SDS011;45074;52.764;6.896;2023-03-01T16:33:00;12.48;;;9.00;;
59302;SDS011;45074;52.764;6.896;2023-03-01T16:35:26;11.50;;;8.80;;
59302;SDS011;45074;52.764;6.896;2023-03-01T16:37:52;11.00;;;8.60;;
59302;SDS011;45074;52.764;6.896;2023-03-01T16:40:23;12.45;;;9.30;;
59302;SDS011;45074;52.764;6.896;2023-03-01T16:42:51;11.80;;;8.55;;
59302;SDS011;45074;52.764;6.896;2023-03-01T16:45:18;12.40;;;9.23;;
59302;SDS011;45074;52.764;6.896;2023-03-01T16:47:44;11.73;;;9.18;;
59302;SDS011;45074;52.764;6.896;2023-03-01T16:50:11;15.20;;;10.13;;
59302;SDS011;45074;52.764;6.896;2023-03-01T16:52:37;14.02;;;10.30;;
59302;SDS011;45074;52.764;6.896;2023-03-01T16:55:03;15.25;;;10.82;;
59302;SDS011;45074;52.764;6.896;2023-03-01T16:57:33;13.25;;;9.90;;